Time;durP1;ratioP1;P1;durP2;ratioP2;P2;SDS_P1;SDS_P2;PMS_P1;PMS_P2;Temp;Humidity;BMP_temperature;BMP_pressure;BME280_temperature;BME280_humidity;BME280_pressure;Samples;Min_cycle;Max_cycle;Signal;HPM_P1;HPM_P2
2023/01/27 00:00:12;;;;;;;;;;;5.30;99.90;;;;;;5036084;28;20364;-77
2023/01/27 00:02:41;;;;;;;;;;;5.30;99.90;;;;;;5036148;28;19905;-77
2023/01/27 00:05:08;;;;;;;;;;;5.30;99.90;;;;;;5017767;28;19909;-77
2023/01/27 00:07:33;;;;;;;;;;;5.30;99.90;;;;;;5018124;28;20035;-77
2023/01/27 00:09:59;;;;;;;;;;;5.30;99.90;;;;;;5018396;28;19947;-76
2023/01/27 00:15:09;;;;;;;;;;;5.30;99.90;;;;;;5036313;28;19920;-77
2023/01/27 00:17:35;;;;;;;;;;;5.30;99.90;;;;;;5035405;28;19940;-77
2023/01/27 00:20:00;;;;;;;;;;;5.20;99.90;;;;;;5035159;28;19905;-77
2023/01/27 00:25:10;;;;;;;;;;;5.20;99.90;;;;;;5034976;28;19915;-77
2023/01/27 00:27:36;;;;;;;;;;;5.20;99.90;;;;;;5017342;28;19905;-77
2023/01/27 00:30:03;;;;;;;;;;;5.10;99.90;;;;;;5017307;28;19905;-77
2023/01/27 00:35:15;;;;;;;;;;;5.20;99.90;;;;;;5036221;28;19954;-76
2023/01/27 00:37:41;;;;;;;;;;;5.20;99.90;;;;;;5017501;28;19958;-77
2023/01/27 00:40:06;;;;;;;;;;;5.20;99.90;;;;;;5016809;28;19908;-77
2023/01/27 00:42:32;;;;;;;;;;;5.20;99.90;;;;;;5034456;28;19913;-77
2023/01/27 00:47:42;;;;;;;;;;;5.20;99.90;;;;;;5034930;28;19932;-77
2023/01/27 00:50:08;;;;;;;;;;;5.10;99.90;;;;;;5016020;28;19905;-77
2023/01/27 00:52:33;;;;;;;;;;;5.10;99.90;;;;;;5034426;28;19992;-77
2023/01/27 00:54:59;;;;;;;;;;;5.10;99.90;;;;;;5034213;28;20375;-77
2023/01/27 00:57:24;;;;;;;;;;;5.10;99.90;;;;;;5034654;28;19909;-77
2023/01/27 00:59:50;;;;;;;;;;;5.10;99.90;;;;;;5034097;28;19909;-77
2023/01/27 01:02:15;;;;;;;;;;;5.10;99.90;;;;;;5034631;28;19912;-77
2023/01/27 01:04:41;;;;;;;;;;;5.10;99.90;;;;;;5016328;28;20437;-74
2023/01/27 01:07:06;;;;;;;;;;;5.10;99.90;;;;;;5017957;28;19955;-77
2023/01/27 01:09:32;;;;;;;;;;;5.10;99.90;;;;;;5016546;28;19911;-75
2023/01/27 01:11:57;;;;;;;;;;;5.10;99.90;;;;;;5034256;28;19905;-77
2023/01/27 01:14:22;;;;;;;;;;;5.20;99.90;;;;;;5034145;28;20000;-76
2023/01/27 01:16:48;;;;;;;;;;;5.10;99.90;;;;;;5033791;28;19920;-76
2023/01/27 01:19:13;;;;;;;;;;;5.10;99.90;;;;;;5016579;28;19928;-77
2023/01/27 01:21:39;;;;;;;;;;;5.00;99.90;;;;;;5034278;28;19905;-77
2023/01/27 01:24:05;;;;;;;;;;;6.00;99.90;;;;;;5016493;28;19909;-78
2023/01/27 01:26:30;;;;;;;;;;;5.00;99.90;;;;;;5033987;28;19913;-78
2023/01/27 01:28:56;;;;;;;;;;;5.00;99.90;;;;;;5016567;28;20411;-77
2023/01/27 01:31:21;;;;;;;;;;;5.00;99.90;;;;;;5034110;28;19919;-77
2023/01/27 01:33:47;;;;;;;;;;;5.00;99.90;;;;;;5016260;28;20355;-77
2023/01/27 01:36:14;;;;;;;;;;;4.90;99.90;;;;;;5016130;28;19933;-77
2023/01/27 01:38:40;;;;;;;;;;;4.90;99.90;;;;;;5033791;28;19958;-77
2023/01/27 01:41:06;;;;;;;;;;;4.90;99.90;;;;;;5033949;28;20344;-77
2023/01/27 01:43:31;;;;;;;;;;;4.90;99.90;;;;;;5015959;28;19905;-77
2023/01/27 01:45:58;;;;;;;;;;;4.90;99.90;;;;;;5015965;28;20352;-77
2023/01/27 01:48:26;;;;;;;;;;;4.90;99.90;;;;;;5033618;28;19905;-77
2023/01/27 01:51:08;;;;;;;;;;;4.90;99.90;;;;;;5033505;28;19905;-77
2023/01/27 01:53:46;;;;;;;;;;;4.90;99.90;;;;;;5016234;28;19912;-77
2023/01/27 01:56:18;;;;;;;;;;;4.90;99.90;;;;;;5016173;28;19928;-77
2023/01/27 01:58:44;;;;;;;;;;;4.90;99.90;;;;;;5033768;28;19912;-77
2023/01/27 02:01:10;;;;;;;;;;;4.90;99.90;;;;;;5018462;28;19909;-77
2023/01/27 02:03:37;;;;;;;;;;;4.90;99.90;;;;;;5037463;28;19905;-77
2023/01/27 02:06:03;;;;;;;;;;;4.90;99.90;;;;;;5037719;28;19909;-77
2023/01/27 02:08:31;;;;;;;;;;;4.90;99.90;;;;;;5020102;28;19920;-77
2023/01/27 02:10:57;;;;;;;;;;;4.90;99.90;;;;;;5020313;28;19905;-77
2023/01/27 02:13:22;;;;;;;;;;;4.90;99.90;;;;;;5019478;28;19999;-77
2023/01/27 02:15:50;;;;;;;;;;;4.80;99.90;;;;;;5037112;28;20422;-77
2023/01/27 02:18:16;;;;;;;;;;;4.80;99.90;;;;;;5019623;28;19967;-77
2023/01/27 02:20:46;;;;;;;;;;;4.80;99.90;;;;;;5019982;28;20019;-77
2023/01/27 02:23:24;;;;;;;;;;;5.70;99.90;;;;;;5037186;28;20320;-77
2023/01/27 02:25:58;;;;;;;;;;;4.80;99.90;;;;;;5037105;28;19909;-77
2023/01/27 02:28:27;;;;;;;;;;;4.90;99.90;;;;;;5037231;28;19951;-77
2023/01/27 02:30:53;;;;;;;;;;;4.90;99.90;;;;;;5037784;28;19905;-77
2023/01/27 02:33:18;;;;;;;;;;;4.90;99.90;;;;;;5037248;28;19905;-76
2023/01/27 02:35:47;;;;;;;;;;;4.90;99.90;;;;;;5019454;28;19913;-76
2023/01/27 02:38:13;;;;;;;;;;;4.80;99.90;;;;;;5036864;28;19911;-77
2023/01/27 02:40:39;;;;;;;;;;;4.80;99.90;;;;;;5037043;28;19905;-77
2023/01/27 02:43:04;;;;;;;;;;;6.80;99.90;;;;;;5019224;28;19955;-77
2023/01/27 02:45:30;;;;;;;;;;;4.80;99.90;;;;;;5036617;28;19909;-77
2023/01/27 02:47:56;;;;;;;;;;;4.80;99.90;;;;;;5037427;28;20483;-77
2023/01/27 02:50:21;;;;;;;;;;;4.80;99.90;;;;;;5037162;28;20378;-77
2023/01/27 02:52:46;;;;;;;;;;;4.70;99.90;;;;;;5019382;28;19975;-77
2023/01/27 02:55:12;;;;;;;;;;;4.70;99.90;;;;;;5019276;28;20382;-77
2023/01/27 02:57:37;;;;;;;;;;;4.70;99.90;;;;;;5036623;28;19952;-76
2023/01/27 03:00:03;;;;;;;;;;;4.60;99.90;;;;;;5036709;28;19948;-76
2023/01/27 03:02:32;;;;;;;;;;;4.60;99.90;;;;;;5018934;28;19905;-77
2023/01/27 03:04:58;;;;;;;;;;;4.60;99.90;;;;;;5036627;28;19912;-77
2023/01/27 03:07:23;;;;;;;;;;;4.50;99.90;;;;;;5037270;28;20301;-77
2023/01/27 03:09:49;;;;;;;;;;;4.50;99.90;;;;;;5019833;28;19905;-77
2023/01/27 03:12:20;;;;;;;;;;;4.50;99.90;;;;;;5035895;28;19908;-77
2023/01/27 03:20:15;;;;;;;;;;;4.40;99.90;;;;;;5037384;28;19916;-77
2023/01/27 03:22:40;;;;;;;;;;;4.40;99.90;;;;;;5036688;28;20360;-77
2023/01/27 03:25:06;;;;;;;;;;;4.30;99.90;;;;;;5036883;28;19908;-77
2023/01/27 03:27:31;;;;;;;;;;;4.30;99.90;;;;;;5019266;28;19909;-77
2023/01/27 03:29:57;;;;;;;;;;;4.30;99.90;;;;;;5036270;28;19911;-77
2023/01/27 03:32:23;;;;;;;;;;;4.30;99.90;;;;;;5018909;28;19912;-77
2023/01/27 03:34:48;;;;;;;;;;;4.30;99.90;;;;;;5036772;28;19905;-77
2023/01/27 03:48:11;;;;;;;;;;;4.30;99.90;;;;;;5036866;28;19912;-77
2023/01/27 03:50:41;;;;;;;;;;;4.40;99.90;;;;;;5036449;28;20272;-77
2023/01/27 03:53:08;;;;;;;;;;;4.40;99.90;;;;;;5036972;28;19905;-77
2023/01/27 03:55:34;;;;;;;;;;;4.40;99.90;;;;;;5036830;28;19905;-76
2023/01/27 03:58:18;;;;;;;;;;;4.40;99.90;;;;;;5018712;28;20387;-76
2023/01/27 04:00:54;;;;;;;;;;;4.40;99.90;;;;;;5036636;28;20264;-76
2023/01/27 04:08:50;;;;;;;;;;;4.20;99.90;;;;;;5037125;28;20370;-76
2023/01/27 04:14:04;;;;;;;;;;;4.20;99.90;;;;;;5036893;28;19912;-76
2023/01/27 04:16:30;;;;;;;;;;;4.20;99.90;;;;;;5035964;28;19936;-76
2023/01/27 04:18:56;;;;;;;;;;;4.30;99.90;;;;;;5018660;28;19960;-76
2023/01/27 04:21:22;;;;;;;;;;;4.30;99.90;;;;;;5018233;28;19912;-76
2023/01/27 04:23:47;;;;;;;;;;;4.20;99.90;;;;;;5035107;28;19905;-76
2023/01/27 04:26:12;;;;;;;;;;;4.20;99.90;;;;;;5035786;28;19909;-76
2023/01/27 04:28:38;;;;;;;;;;;4.20;99.90;;;;;;5018662;28;19905;-77
2023/01/27 04:31:03;;;;;;;;;;;4.20;99.90;;;;;;5036239;28;20311;-77
2023/01/27 04:33:29;;;;;;;;;;;4.20;99.90;;;;;;5018399;28;19928;-77
2023/01/27 04:35:55;;;;;;;;;;;4.20;99.90;;;;;;5036028;28;19908;-77
2023/01/27 04:38:21;;;;;;;;;;;4.20;99.90;;;;;;5036407;28;20271;-77
2023/01/27 04:40:46;;;;;;;;;;;4.30;99.90;;;;;;5018281;28;19905;-77
2023/01/27 04:43:12;;;;;;;;;;;4.30;99.90;;;;;;5018432;28;20059;-76
2023/01/27 04:45:37;;;;;;;;;;;4.40;99.90;;;;;;5036035;28;19915;-76
2023/01/27 04:48:03;;;;;;;;;;;4.40;99.90;;;;;;5017286;28;19905;-77
2023/01/27 04:50:28;;;;;;;;;;;4.30;99.90;;;;;;5034851;28;20000;-77
2023/01/27 04:52:54;;;;;;;;;;;4.40;99.90;;;;;;5017248;28;20475;-77
2023/01/27 04:55:19;;;;;;;;;;;5.10;99.90;;;;;;5017177;28;19911;-77
2023/01/27 04:57:45;;;;;;;;;;;4.40;99.90;;;;;;5016979;28;20388;-77
2023/01/27 05:00:11;;;;;;;;;;;4.40;99.90;;;;;;5017214;28;19905;-77
2023/01/27 05:02:37;;;;;;;;;;;4.40;99.90;;;;;;5016505;28;19908;-76
2023/01/27 05:05:03;;;;;;;;;;;4.40;99.90;;;;;;5034406;28;19975;-76
2023/01/27 05:07:29;;;;;;;;;;;4.40;99.90;;;;;;5034494;28;20368;-77
2023/01/27 05:09:55;;;;;;;;;;;4.50;99.90;;;;;;5033950;28;19966;-77
2023/01/27 05:12:20;;;;;;;;;;;4.50;99.90;;;;;;5016396;28;19905;-76
2023/01/27 05:14:45;;;;;;;;;;;4.50;99.90;;;;;;5034820;28;19905;-76
2023/01/27 05:17:11;;;;;;;;;;;4.40;99.90;;;;;;5016493;28;20000;-76
2023/01/27 05:19:36;;;;;;;;;;;4.40;99.90;;;;;;5034291;28;19905;-77
2023/01/27 05:22:02;;;;;;;;;;;4.40;99.90;;;;;;5033675;28;19991;-76
2023/01/27 05:24:27;;;;;;;;;;;4.50;99.90;;;;;;5034689;28;19905;-76
2023/01/27 05:26:53;;;;;;;;;;;4.50;99.90;;;;;;5034278;28;20007;-76
2023/01/27 05:29:18;;;;;;;;;;;4.50;99.90;;;;;;5034112;28;19906;-76
2023/01/27 05:31:44;;;;;;;;;;;4.50;99.90;;;;;;5016504;28;19906;-76
2023/01/27 05:34:09;;;;;;;;;;;4.50;99.90;;;;;;5016443;28;19988;-76
2023/01/27 05:36:35;;;;;;;;;;;4.50;99.90;;;;;;5020534;28;20019;-77
2023/01/27 05:39:00;;;;;;;;;;;4.50;99.90;;;;;;5020109;28;19905;-77
2023/01/27 05:41:28;;;;;;;;;;;4.50;99.90;;;;;;5037904;28;19905;-77
2023/01/27 05:43:54;;;;;;;;;;;4.50;99.90;;;;;;5037975;28;19912;-76
2023/01/27 05:46:21;;;;;;;;;;;4.50;99.90;;;;;;5020222;28;20293;-76
2023/01/27 05:48:48;;;;;;;;;;;4.50;99.90;;;;;;5020011;28;19928;-76
2023/01/27 05:51:15;;;;;;;;;;;4.60;99.90;;;;;;5019960;28;19905;-76
2023/01/27 05:53:40;;;;;;;;;;;4.50;99.90;;;;;;5037880;28;19912;-77
2023/01/27 05:56:09;;;;;;;;;;;4.60;99.90;;;;;;5037346;28;19905;-77
2023/01/27 05:58:35;;;;;;;;;;;4.60;99.90;;;;;;5019730;28;19911;-76
2023/01/27 06:01:06;;;;;;;;;;;4.60;99.90;;;;;;5037724;28;19995;-77
2023/01/27 06:03:32;;;;;;;;;;;4.50;99.90;;;;;;5020084;28;19905;-77
2023/01/27 06:05:57;;;;;;;;;;;4.50;99.90;;;;;;5019798;28;19916;-77
2023/01/27 06:08:23;;;;;;;;;;;4.50;99.90;;;;;;5019677;28;19955;-77
2023/01/27 06:10:49;;;;;;;;;;;4.50;99.90;;;;;;5019401;28;20370;-77
2023/01/27 06:13:15;;;;;;;;;;;4.50;99.90;;;;;;5037285;28;19909;-77
2023/01/27 06:15:44;;;;;;;;;;;4.50;99.90;;;;;;5036913;28;19920;-78
2023/01/27 06:18:10;;;;;;;;;;;4.60;99.90;;;;;;5037762;28;19916;-78
2023/01/27 06:20:36;;;;;;;;;;;4.60;99.90;;;;;;5037011;28;19927;-77
2023/01/27 06:23:03;;;;;;;;;;;4.50;99.90;;;;;;5037238;28;20356;-77
2023/01/27 06:25:28;;;;;;;;;;;4.50;99.90;;;;;;5019467;28;19909;-77
2023/01/27 06:27:54;;;;;;;;;;;4.50;99.90;;;;;;5037394;28;19905;-77
2023/01/27 06:30:20;;;;;;;;;;;4.50;99.90;;;;;;5037076;28;19905;-78
2023/01/27 06:32:45;;;;;;;;;;;4.40;99.90;;;;;;5019614;28;20348;-78
2023/01/27 06:35:11;;;;;;;;;;;4.40;99.90;;;;;;5036834;28;19905;-77
2023/01/27 06:37:36;;;;;;;;;;;4.40;99.90;;;;;;5019420;28;19905;-78
2023/01/27 06:40:02;;;;;;;;;;;4.40;99.90;;;;;;5037430;28;19936;-77
2023/01/27 06:42:28;;;;;;;;;;;4.30;99.90;;;;;;5037246;28;19905;-78
2023/01/27 06:44:54;;;;;;;;;;;4.90;99.90;;;;;;5036507;28;20045;-79
2023/01/27 06:47:20;;;;;;;;;;;4.30;99.90;;;;;;5018191;28;19905;-78
2023/01/27 06:49:45;;;;;;;;;;;4.40;99.90;;;;;;5018752;28;19955;-78
2023/01/27 06:52:11;;;;;;;;;;;4.40;99.90;;;;;;5019446;28;19959;-78
2023/01/27 06:54:36;;;;;;;;;;;4.40;99.90;;;;;;5036670;28;19992;-78
2023/01/27 06:57:02;;;;;;;;;;;4.40;99.90;;;;;;5036749;28;19935;-78
2023/01/27 06:59:27;;;;;;;;;;;4.40;99.90;;;;;;5020313;28;19940;-78
2023/01/27 07:01:53;;;;;;;;;;;4.40;99.90;;;;;;5020008;28;19991;-78
2023/01/27 07:04:18;;;;;;;;;;;4.40;99.90;;;;;;5019980;28;19905;-79
2023/01/27 07:06:44;;;;;;;;;;;4.30;99.90;;;;;;5019513;28;19929;-79
2023/01/27 07:09:10;;;;;;;;;;;4.30;99.90;;;;;;5037784;28;19905;-78
2023/01/27 07:11:35;;;;;;;;;;;4.30;99.90;;;;;;5037252;28;19909;-78
2023/01/27 07:14:01;;;;;;;;;;;4.30;99.90;;;;;;5019653;28;19905;-79
2023/01/27 07:16:27;;;;;;;;;;;4.30;99.90;;;;;;5020158;28;19920;-79
2023/01/27 07:18:52;;;;;;;;;;;4.30;99.90;;;;;;5036711;28;19905;-79
2023/01/27 07:21:18;;;;;;;;;;;4.30;99.90;;;;;;5038112;28;19944;-78
2023/01/27 07:23:43;;;;;;;;;;;4.30;99.90;;;;;;5038370;28;19905;-79
2023/01/27 07:26:09;;;;;;;;;;;5.50;99.90;;;;;;5037133;28;19909;-78
2023/01/27 07:28:34;;;;;;;;;;;4.30;99.90;;;;;;5036898;28;19909;-78
2023/01/27 07:31:01;;;;;;;;;;;4.20;99.90;;;;;;5019078;28;19905;-78
2023/01/27 07:33:26;;;;;;;;;;;4.20;99.90;;;;;;5037092;28;19920;-78
2023/01/27 07:35:52;;;;;;;;;;;4.20;99.90;;;;;;5019677;28;19905;-78
2023/01/27 07:38:17;;;;;;;;;;;4.20;99.90;;;;;;5019907;28;19904;-78
2023/01/27 07:40:43;;;;;;;;;;;4.20;99.90;;;;;;5019312;28;20279;-78
2023/01/27 07:43:09;;;;;;;;;;;5.30;99.90;;;;;;5018910;28;20279;-78
2023/01/27 07:45:34;;;;;;;;;;;4.10;99.90;;;;;;5037001;28;20426;-78
2023/01/27 07:48:04;;;;;;;;;;;4.10;99.90;;;;;;5037129;28;19905;-78
2023/01/27 07:50:30;;;;;;;;;;;4.10;99.90;;;;;;5036326;28;19905;-78
2023/01/27 07:52:59;;;;;;;;;;;4.10;99.90;;;;;;5019163;28;19912;-78
2023/01/27 07:55:25;;;;;;;;;;;4.10;99.90;;;;;;5036566;28;19955;-78
2023/01/27 07:57:54;;;;;;;;;;;4.00;99.90;;;;;;5019082;28;19909;-78
2023/01/27 08:00:20;;;;;;;;;;;4.00;99.90;;;;;;5019031;28;19912;-78
2023/01/27 08:02:50;;;;;;;;;;;4.10;99.90;;;;;;5018772;28;19905;-78
2023/01/27 08:05:15;;;;;;;;;;;4.10;99.90;;;;;;5036348;28;19935;-78
2023/01/27 08:07:41;;;;;;;;;;;4.10;99.90;;;;;;5036167;28;19909;-79
2023/01/27 08:10:07;;;;;;;;;;;4.10;99.90;;;;;;5035269;28;19905;-78
2023/01/27 08:12:32;;;;;;;;;;;4.00;99.90;;;;;;5017658;28;19905;-77
2023/01/27 08:14:58;;;;;;;;;;;4.20;99.90;;;;;;5017843;28;19908;-78
2023/01/27 08:17:23;;;;;;;;;;;4.20;99.90;;;;;;5036537;28;19905;-78
2023/01/27 08:19:50;;;;;;;;;;;4.20;99.90;;;;;;5018294;28;19909;-78
2023/01/27 08:22:19;;;;;;;;;;;4.30;99.90;;;;;;5017990;28;20364;-79
2023/01/27 08:24:45;;;;;;;;;;;5.50;99.90;;;;;;5035303;28;20319;-78
2023/01/27 08:27:11;;;;;;;;;;;4.30;99.90;;;;;;5017679;28;19905;-78
2023/01/27 08:29:36;;;;;;;;;;;4.30;99.90;;;;;;5017626;28;19905;-78
2023/01/27 08:32:02;;;;;;;;;;;4.20;99.90;;;;;;5018263;28;19999;-78
2023/01/27 08:34:27;;;;;;;;;;;4.20;99.90;;;;;;5035906;28;19905;-78
2023/01/27 08:36:53;;;;;;;;;;;4.20;99.90;;;;;;5018236;28;19905;-78
2023/01/27 08:39:18;;;;;;;;;;;5.50;99.90;;;;;;5018961;28;19905;-78
2023/01/27 08:41:44;;;;;;;;;;;4.20;99.90;;;;;;5035381;28;19988;-79
2023/01/27 08:44:09;;;;;;;;;;;4.10;99.90;;;;;;5035766;28;19955;-78
2023/01/27 08:46:35;;;;;;;;;;;4.10;99.90;;;;;;5017864;28;19913;-78
2023/01/27 08:49:00;;;;;;;;;;;4.10;99.90;;;;;;5035092;28;19905;-78
2023/01/27 08:51:26;;;;;;;;;;;4.50;99.90;;;;;;5035186;28;19905;-78
2023/01/27 08:53:51;;;;;;;;;;;4.20;99.90;;;;;;5017274;28;19905;-78
2023/01/27 08:56:17;;;;;;;;;;;4.30;99.90;;;;;;5017319;28;19905;-78
2023/01/27 08:58:46;;;;;;;;;;;4.40;99.90;;;;;;5035086;28;19912;-77
2023/01/27 09:01:11;;;;;;;;;;;4.50;99.90;;;;;;5017262;28;19905;-78
2023/01/27 09:03:37;;;;;;;;;;;4.50;99.90;;;;;;5017452;28;19905;-79
2023/01/27 09:06:06;;;;;;;;;;;4.60;99.90;;;;;;5016789;28;19909;-78
2023/01/27 09:08:31;;;;;;;;;;;4.60;99.90;;;;;;5034852;28;19911;-78
2023/01/27 09:10:57;;;;;;;;;;;6.10;99.90;;;;;;5033889;28;19905;-78
2023/01/27 09:13:22;;;;;;;;;;;4.60;99.90;;;;;;5017100;28;19905;-78
2023/01/27 09:15:51;;;;;;;;;;;4.70;99.90;;;;;;5025347;23;19929;-77
2023/01/27 09:18:17;;;;;;;;;;;4.70;99.90;;;;;;5032833;28;19909;-78
2023/01/27 09:20:42;;;;;;;;;;;4.70;99.90;;;;;;5033722;28;20344;-77
2023/01/27 09:23:08;;;;;;;;;;;4.80;99.90;;;;;;5016495;28;19987;-77
2023/01/27 09:25:33;;;;;;;;;;;4.80;99.90;;;;;;5016267;28;19913;-77
2023/01/27 09:27:59;;;;;;;;;;;4.90;99.90;;;;;;5016358;28;20252;-75
2023/01/27 09:30:25;;;;;;;;;;;4.90;99.90;;;;;;5016745;28;19927;-76
2023/01/27 09:32:51;;;;;;;;;;;5.00;99.90;;;;;;5016456;28;19912;-76
2023/01/27 09:35:16;;;;;;;;;;;5.00;99.90;;;;;;5034008;28;19905;-77
2023/01/27 09:37:53;;;;;;;;;;;5.10;99.90;;;;;;5016130;28;19905;-77
2023/01/27 09:40:18;;;;;;;;;;;5.00;99.90;;;;;;5016692;28;19905;-77
2023/01/27 09:42:47;;;;;;;;;;;5.10;99.90;;;;;;5016614;28;20322;-77
2023/01/27 09:45:18;;;;;;;;;;;5.10;99.90;;;;;;5016456;28;19909;-77
2023/01/27 09:47:53;;;;;;;;;;;5.20;99.90;;;;;;5034531;28;19976;-78
2023/01/27 09:50:24;;;;;;;;;;;5.20;99.90;;;;;;5034499;28;19905;-78
2023/01/27 09:52:49;;;;;;;;;;;5.30;99.90;;;;;;5034059;28;19905;-77
2023/01/27 09:55:20;;;;;;;;;;;5.30;99.90;;;;;;5034220;28;19905;-78
2023/01/27 09:58:01;;;;;;;;;;;5.40;99.90;;;;;;5034050;28;20434;-77
2023/01/27 10:00:32;;;;;;;;;;;5.40;99.90;;;;;;5033826;28;19909;-78
2023/01/27 10:03:00;;;;;;;;;;;5.50;99.90;;;;;;5034309;28;19905;-78
2023/01/27 10:05:31;;;;;;;;;;;5.50;99.90;;;;;;5015959;28;19909;-79
2023/01/27 10:08:20;;;;;;;;;;;5.40;99.90;;;;;;5016897;28;19950;-78
2023/01/27 10:10:52;;;;;;;;;;;5.30;99.90;;;;;;5016333;28;19905;-78
2023/01/27 10:13:42;;;;;;;;;;;5.20;99.90;;;;;;5034457;28;19964;-76
2023/01/27 10:16:09;;;;;;;;;;;5.20;99.90;;;;;;5016481;28;19920;-78
2023/01/27 10:18:54;;;;;;;;;;;5.10;99.90;;;;;;5016675;28;19912;-77
2023/01/27 10:21:30;;;;;;;;;;;5.10;99.90;;;;;;5017881;28;19928;-78
2023/01/27 10:24:01;;;;;;;;;;;5.00;99.90;;;;;;5037345;28;19927;-78
2023/01/27 10:26:56;;;;;;;;;;;4.90;99.90;;;;;;5020179;28;20283;-78
2023/01/27 10:29:29;;;;;;;;;;;5.00;99.90;;;;;;5028024;28;19905;-78
2023/01/27 10:32:11;;;;;;;;;;;5.00;99.90;;;;;;5037533;28;19905;-78
2023/01/27 10:34:43;;;;;;;;;;;5.10;99.90;;;;;;5036952;28;19912;-78
2023/01/27 10:37:14;;;;;;;;;;;5.20;99.90;;;;;;5037682;28;19944;-78
2023/01/27 10:39:48;;;;;;;;;;;5.30;99.90;;;;;;5038060;28;19905;-78
2023/01/27 10:42:37;;;;;;;;;;;5.50;99.90;;;;;;5020341;28;19944;-78
2023/01/27 10:45:18;;;;;;;;;;;5.60;99.90;;;;;;5038229;28;19905;-76
2023/01/27 10:47:52;;;;;;;;;;;5.60;99.90;;;;;;5019404;28;19912;-76
2023/01/27 10:50:24;;;;;;;;;;;5.70;99.90;;;;;;5037566;28;19905;-78
2023/01/27 10:52:58;;;;;;;;;;;5.60;99.90;;;;;;5037707;28;19905;-77
2023/01/27 10:55:27;;;;;;;;;;;5.60;99.90;;;;;;5037333;28;19909;-76
2023/01/27 10:57:55;;;;;;;;;;;5.60;99.90;;;;;;5037205;28;19912;-78
2023/01/27 11:00:38;;;;;;;;;;;5.60;99.90;;;;;;5037171;28;19905;-77
2023/01/27 11:03:03;;;;;;;;;;;5.60;99.90;;;;;;5037324;28;19905;-78
2023/01/27 11:05:31;;;;;;;;;;;5.60;99.90;;;;;;5037079;28;19909;-77
2023/01/27 11:08:16;;;;;;;;;;;5.50;99.90;;;;;;5036476;28;19905;-77
2023/01/27 11:13:34;;;;;;;;;;;5.50;99.90;;;;;;5037677;28;19911;-78
2023/01/27 11:16:00;;;;;;;;;;;5.40;99.90;;;;;;5019076;28;20369;-78
2023/01/27 11:18:27;;;;;;;;;;;5.40;99.90;;;;;;5036034;28;19905;-78
2023/01/27 11:20:55;;;;;;;;;;;5.40;99.90;;;;;;5018730;28;19905;-78
2023/01/27 11:23:25;;;;;;;;;;;5.40;99.90;;;;;;5018806;28;19912;-77
2023/01/27 11:26:01;;;;;;;;;;;5.40;99.90;;;;;;5035843;28;19909;-76
2023/01/27 11:28:45;;;;;;;;;;;5.40;99.90;;;;;;5018936;28;20050;-76
2023/01/27 11:31:10;;;;;;;;;;;5.40;99.90;;;;;;5018676;28;20391;-76
2023/01/27 11:33:47;;;;;;;;;;;5.40;99.90;;;;;;5035682;28;20022;-76
2023/01/27 11:36:13;;;;;;;;;;;5.40;99.90;;;;;;5036250;28;20332;-76
2023/01/27 11:38:38;;;;;;;;;;;5.40;99.90;;;;;;5035723;28;19912;-76
2023/01/27 11:41:04;;;;;;;;;;;6.40;99.90;;;;;;5018396;28;19911;-76
2023/01/27 11:43:30;;;;;;;;;;;5.40;99.90;;;;;;5036248;28;19913;-76
2023/01/27 11:46:04;;;;;;;;;;;5.30;99.90;;;;;;5018422;28;19913;-76
2023/01/27 11:48:39;;;;;;;;;;;5.20;99.90;;;;;;5036828;28;19909;-76
2023/01/27 11:51:11;;;;;;;;;;;5.20;99.90;;;;;;5035550;28;19992;-77
2023/01/27 11:53:39;;;;;;;;;;;5.20;99.90;;;;;;5036418;28;19916;-77
2023/01/27 11:56:07;;;;;;;;;;;5.20;99.90;;;;;;5035940;28;19936;-77
2023/01/27 11:58:34;;;;;;;;;;;5.20;99.90;;;;;;5017282;28;19905;-77
2023/01/27 12:01:21;;;;;;;;;;;5.20;99.90;;;;;;5017860;28;19905;-76
2023/01/27 12:03:49;;;;;;;;;;;5.20;99.90;;;;;;5018213;28;19944;-76
2023/01/27 12:06:17;;;;;;;;;;;5.20;99.90;;;;;;5035592;28;19916;-77
2023/01/27 12:08:45;;;;;;;;;;;5.20;99.90;;;;;;5035373;28;19932;-76
2023/01/27 12:11:18;;;;;;;;;;;5.20;99.90;;;;;;5035012;28;19905;-76
2023/01/27 12:13:47;;;;;;;;;;;5.20;99.90;;;;;;5017932;28;19912;-76
2023/01/27 12:16:12;;;;;;;;;;;5.20;99.90;;;;;;5035096;28;19924;-76
2023/01/27 12:18:45;;;;;;;;;;;5.20;99.90;;;;;;5034811;28;20276;-76
2023/01/27 12:21:12;;;;;;;;;;;5.20;99.90;;;;;;5035136;28;20272;-76
2023/01/27 12:23:47;;;;;;;;;;;5.20;99.90;;;;;;5035131;28;20303;-77
2023/01/27 12:26:13;;;;;;;;;;;5.20;99.90;;;;;;5034569;28;20422;-77
2023/01/27 12:28:48;;;;;;;;;;;5.20;99.90;;;;;;5017030;28;19905;-77
2023/01/27 12:31:20;;;;;;;;;;;5.20;99.90;;;;;;5017283;28;19905;-76
2023/01/27 12:33:50;;;;;;;;;;;5.20;99.90;;;;;;5035924;28;20482;-76
2023/01/27 12:36:18;;;;;;;;;;;5.30;99.90;;;;;;5035879;28;19909;-76
2023/01/27 12:38:54;;;;;;;;;;;5.40;99.90;;;;;;5018256;28;19905;-76
2023/01/27 12:41:22;;;;;;;;;;;5.50;99.90;;;;;;5018384;28;19905;-77
2023/01/27 12:43:52;;;;;;;;;;;5.50;99.90;;;;;;5035490;28;19904;-77
2023/01/27 12:46:22;;;;;;;;;;;5.60;99.90;;;;;;5035346;28;19924;-77
2023/01/27 12:48:52;;;;;;;;;;;5.60;99.90;;;;;;5017076;28;19905;-77
2023/01/27 12:51:20;;;;;;;;;;;5.70;99.90;;;;;;5016920;28;19905;-77
2023/01/27 12:53:49;;;;;;;;;;;5.80;99.90;;;;;;5016471;28;20025;-77
2023/01/27 12:56:17;;;;;;;;;;;5.90;99.90;;;;;;5016726;28;19905;-76
2023/01/27 12:58:43;;;;;;;;;;;5.90;99.90;;;;;;5034649;28;20039;-77
2023/01/27 13:01:25;;;;;;;;;;;5.90;99.90;;;;;;5033989;28;19905;-77
2023/01/27 13:03:54;;;;;;;;;;;5.90;99.90;;;;;;5016725;28;19912;-76
2023/01/27 13:06:23;;;;;;;;;;;5.90;99.90;;;;;;5033989;28;19909;-77
2023/01/27 13:08:50;;;;;;;;;;;5.80;99.90;;;;;;5034287;28;19944;-77
2023/01/27 13:11:18;;;;;;;;;;;5.80;99.90;;;;;;5016263;28;20303;-77
2023/01/27 13:13:50;;;;;;;;;;;6.30;99.90;;;;;;5033921;28;19905;-77
2023/01/27 13:16:19;;;;;;;;;;;5.90;99.90;;;;;;5016131;28;19912;-77
2023/01/27 13:18:51;;;;;;;;;;;5.90;99.90;;;;;;5033926;28;19948;-77
2023/01/27 13:21:17;;;;;;;;;;;5.90;99.90;;;;;;5034366;28;19909;-77
2023/01/27 13:23:45;;;;;;;;;;;5.80;99.90;;;;;;5016212;28;19905;-77
2023/01/27 13:26:30;;;;;;;;;;;5.80;99.90;;;;;;5033880;28;19909;-77
2023/01/27 13:29:08;;;;;;;;;;;5.70;99.90;;;;;;5033393;28;19909;-77
2023/01/27 13:31:43;;;;;;;;;;;5.60;99.90;;;;;;5016193;28;19912;-76
2023/01/27 13:34:22;;;;;;;;;;;5.60;99.90;;;;;;5034074;28;19951;-76
2023/01/27 13:36:54;;;;;;;;;;;5.60;99.90;;;;;;5033861;28;19905;-76
2023/01/27 13:39:25;;;;;;;;;;;5.50;99.90;;;;;;5017594;28;19959;-79
2023/01/27 13:42:03;;;;;;;;;;;5.40;99.90;;;;;;5018221;28;19905;-79
2023/01/27 13:44:37;;;;;;;;;;;5.40;99.90;;;;;;5035249;28;20320;-78
2023/01/27 13:47:05;;;;;;;;;;;5.30;99.90;;;;;;5033872;28;19915;-78
2023/01/27 13:49:36;;;;;;;;;;;5.30;99.90;;;;;;5016553;28;19905;-78
2023/01/27 13:52:04;;;;;;;;;;;5.30;99.90;;;;;;5034474;28;20414;-78
2023/01/27 13:54:30;;;;;;;;;;;5.20;99.90;;;;;;5034607;28;19909;-78
2023/01/27 13:57:21;;;;;;;;;;;5.30;99.90;;;;;;5037009;28;20417;-78
2023/01/27 14:00:18;;;;;;;;;;;5.20;99.90;;;;;;5017945;28;19909;-78
2023/01/27 14:02:43;;;;;;;;;;;5.20;99.90;;;;;;5029654;28;19905;-78
2023/01/27 14:05:28;;;;;;;;;;;5.20;99.90;;;;;;5019919;28;19905;-78
2023/01/27 14:07:53;;;;;;;;;;;5.10;99.90;;;;;;5020218;28;19909;-78
2023/01/27 14:10:19;;;;;;;;;;;5.10;99.90;;;;;;5019795;28;19956;-78
2023/01/27 14:12:54;;;;;;;;;;;5.10;99.90;;;;;;5019771;28;19905;-77
2023/01/27 14:15:38;;;;;;;;;;;5.10;99.90;;;;;;5037923;28;20360;-77
2023/01/27 14:18:22;;;;;;;;;;;5.00;99.90;;;;;;5037384;28;19905;-76
2023/01/27 14:21:02;;;;;;;;;;;5.00;99.90;;;;;;5038145;28;19955;-73
2023/01/27 14:23:31;;;;;;;;;;;5.00;99.90;;;;;;5020026;28;20001;-73
2023/01/27 14:25:59;;;;;;;;;;;5.00;99.90;;;;;;5038473;28;20395;-75
2023/01/27 14:28:51;;;;;;;;;;;4.90;99.90;;;;;;5037499;28;19911;-76
2023/01/27 14:31:27;;;;;;;;;;;4.90;99.90;;;;;;5004767;28;19908;-77
2023/01/27 14:34:15;;;;;;;;;;;4.90;99.90;;;;;;5037823;28;19911;-75
2023/01/27 14:37:01;;;;;;;;;;;4.80;99.90;;;;;;5036668;28;19912;-76
2023/01/27 14:39:32;;;;;;;;;;;4.80;99.90;;;;;;5018725;28;20287;-75
2023/01/27 14:42:06;;;;;;;;;;;4.80;99.90;;;;;;5037865;28;19905;-77
2023/01/27 14:44:35;;;;;;;;;;;4.80;99.90;;;;;;5019249;28;19905;-77
2023/01/27 14:47:26;;;;;;;;;;;4.80;99.90;;;;;;5036624;28;19909;-77
2023/01/27 14:50:02;;;;;;;;;;;4.80;99.90;;;;;;5017596;28;19931;-77
2023/01/27 14:52:43;;;;;;;;;;;4.80;99.90;;;;;;5036711;28;20339;-77
2023/01/27 14:55:09;;;;;;;;;;;4.80;99.90;;;;;;5019692;28;19966;-77
2023/01/27 14:57:52;;;;;;;;;;;4.80;99.90;;;;;;5036720;28;19907;-76
2023/01/27 15:00:26;;;;;;;;;;;4.80;99.90;;;;;;5037409;28;20430;-76
2023/01/27 15:03:00;;;;;;;;;;;4.70;99.90;;;;;;5037128;28;20457;-77
2023/01/27 15:05:29;;;;;;;;;;;4.70;99.90;;;;;;5037013;28;20015;-77
2023/01/27 15:08:04;;;;;;;;;;;4.70;99.90;;;;;;5017892;28;19912;-77
2023/01/27 15:10:30;;;;;;;;;;;4.70;99.90;;;;;;5018887;28;19912;-77
2023/01/27 15:13:05;;;;;;;;;;;4.70;99.90;;;;;;5018495;28;19949;-76
2023/01/27 15:15:31;;;;;;;;;;;4.70;99.90;;;;;;5019003;28;19917;-76
2023/01/27 15:18:10;;;;;;;;;;;4.60;99.90;;;;;;5018860;28;20393;-76